createdAt,value
2022-11-17T00:00:47.016Z,10.60
2022-11-17T00:01:50.134Z,10.70
2022-11-17T00:02:52.324Z,10.70
2022-11-17T00:03:55.573Z,10.70
2022-11-17T00:04:57.623Z,10.80
2022-11-17T00:06:04.290Z,10.80
2022-11-17T00:07:06.456Z,10.80
2022-11-17T00:08:09.861Z,10.80
2022-11-17T00:09:17.271Z,10.80
2022-11-17T00:10:20.509Z,10.80
2022-11-17T00:11:22.569Z,10.80
2022-11-17T00:12:43.131Z,10.90
2022-11-17T00:14:03.456Z,10.90
2022-11-17T00:15:07.180Z,10.90
2022-11-17T00:16:12.514Z,10.90
2022-11-17T00:17:15.531Z,10.90
2022-11-17T00:18:36.300Z,10.90
2022-11-17T00:19:57.444Z,11.00
2022-11-17T00:21:21.675Z,11.10
2022-11-17T00:22:25.705Z,11.20
2022-11-17T00:23:46.844Z,11.20
2022-11-17T00:24:50.451Z,11.20
2022-11-17T00:25:52.683Z,11.30
2022-11-17T00:27:04.399Z,11.30
2022-11-17T00:28:06.404Z,11.30
2022-11-17T00:29:09.421Z,11.30
2022-11-17T00:30:32.535Z,11.40
2022-11-17T00:31:54.389Z,11.40
2022-11-17T00:33:19.919Z,11.50
2022-11-17T00:34:24.432Z,11.50
2022-11-17T00:35:26.492Z,11.50
2022-11-17T00:36:29.564Z,11.50
2022-11-17T00:37:37.084Z,11.50
2022-11-17T00:38:39.228Z,11.50
2022-11-17T00:39:42.478Z,11.50
2022-11-17T00:40:44.588Z,11.50
2022-11-17T00:41:48.025Z,11.50
2022-11-17T00:42:50.079Z,11.50
2022-11-17T00:43:53.234Z,11.60
2022-11-17T00:44:56.356Z,11.50
2022-11-17T00:45:58.424Z,11.60
2022-11-17T00:47:02.923Z,11.60
2022-11-17T00:48:05.512Z,11.60
2022-11-17T00:49:09.856Z,11.60
2022-11-17T00:50:12.027Z,11.60
2022-11-17T00:51:15.425Z,11.60
2022-11-17T00:52:17.497Z,11.60
2022-11-17T00:53:20.535Z,11.60
2022-11-17T00:54:23.172Z,11.60
2022-11-17T00:55:26.293Z,11.60
2022-11-17T00:56:28.703Z,11.60
2022-11-17T00:57:31.784Z,11.60
2022-11-17T00:58:35.434Z,11.60
2022-11-17T00:59:38.549Z,11.60
2022-11-17T01:00:40.632Z,11.50
2022-11-17T01:01:44.051Z,11.50
2022-11-17T01:02:47.499Z,11.40
2022-11-17T01:03:50.663Z,11.40
2022-11-17T01:04:52.696Z,11.30
2022-11-17T01:05:55.960Z,11.20
2022-11-17T01:06:59.179Z,11.20
2022-11-17T01:08:01.279Z,11.20
2022-11-17T01:09:07.017Z,11.10
2022-11-17T01:10:09.939Z,11.10
2022-11-17T01:11:14.776Z,11.10
2022-11-17T01:12:17.802Z,11.10
2022-11-17T01:13:19.952Z,11.10
2022-11-17T01:14:26.013Z,11.20
2022-11-17T01:15:28.708Z,11.10
2022-11-17T01:16:33.206Z,11.10
2022-11-17T01:17:35.367Z,11.10
2022-11-17T01:18:40.663Z,11.00
2022-11-17T01:19:42.870Z,11.00
2022-11-17T01:20:45.869Z,11.00
2022-11-17T01:21:48.243Z,11.10
2022-11-17T01:22:51.223Z,11.20
2022-11-17T01:23:54.997Z,11.30
2022-11-17T01:24:58.004Z,11.40
2022-11-17T01:26:04.941Z,11.40
2022-11-17T01:27:08.209Z,11.40
2022-11-17T01:28:10.268Z,11.40
2022-11-17T01:29:14.698Z,11.40
2022-11-17T01:30:18.209Z,11.30
2022-11-17T01:31:22.984Z,11.30
2022-11-17T01:32:25.091Z,11.30
2022-11-17T01:33:28.547Z,11.30
2022-11-17T01:34:32.005Z,11.20
2022-11-17T01:35:35.307Z,11.20
2022-11-17T01:36:53.854Z,11.20
2022-11-17T01:37:56.866Z,11.30
2022-11-17T01:38:58.943Z,11.30
2022-11-17T01:40:01.999Z,11.40
2022-11-17T01:41:06.842Z,11.50
2022-11-17T01:42:14.869Z,11.50
2022-11-17T01:43:16.952Z,11.60
2022-11-17T01:44:54.851Z,11.60
2022-11-17T01:45:58.344Z,11.70
2022-11-17T01:47:01.220Z,11.80
2022-11-17T01:48:07.351Z,11.80
2022-11-17T01:49:14.790Z,11.90
2022-11-17T01:50:28.988Z,11.90
2022-11-17T01:51:33.190Z,11.90
2022-11-17T01:52:39.094Z,11.90
2022-11-17T01:53:42.784Z,12.00
2022-11-17T01:54:49.021Z,12.00
2022-11-17T01:55:53.836Z,12.00
2022-11-17T01:57:01.339Z,12.00
2022-11-17T01:58:07.579Z,12.10
2022-11-17T01:59:17.957Z,12.10
2022-11-17T02:00:20.237Z,12.20
2022-11-17T02:01:23.353Z,12.20
2022-11-17T02:02:25.665Z,12.10
2022-11-17T02:03:29.585Z,12.10
2022-11-17T02:04:35.576Z,12.10
2022-11-17T02:05:49.385Z,12.10
2022-11-17T02:06:55.235Z,12.10
2022-11-17T02:08:00.702Z,12.10
2022-11-17T02:09:05.036Z,12.30
2022-11-17T02:10:08.241Z,12.40
2022-11-17T02:11:15.423Z,12.40
2022-11-17T02:12:18.572Z,12.40
2022-11-17T02:13:22.881Z,12.40
2022-11-17T02:14:25.462Z,12.40
2022-11-17T02:15:30.229Z,12.40
2022-11-17T02:16:32.301Z,12.50
2022-11-17T02:17:38.470Z,12.50
2022-11-17T02:18:41.478Z,12.60
2022-11-17T02:19:46.404Z,12.60
2022-11-17T02:21:02.697Z,12.60
2022-11-17T02:22:33.537Z,12.60
2022-11-17T02:24:06.616Z,12.50
2022-11-17T02:25:40.943Z,12.40
2022-11-17T02:27:25.776Z,12.40
2022-11-17T02:28:32.310Z,12.20
2022-11-17T02:29:42.083Z,12.20
2022-11-17T02:30:57.547Z,12.10
2022-11-17T02:32:06.870Z,12.00
2022-11-17T02:33:18.081Z,12.00
2022-11-17T02:34:32.966Z,12.00
2022-11-17T02:35:44.767Z,12.00
2022-11-17T02:36:54.774Z,11.90
2022-11-17T02:38:08.898Z,11.90
2022-11-17T02:39:16.353Z,11.80
2022-11-17T02:40:24.192Z,11.80
2022-11-17T02:41:30.465Z,11.80
2022-11-17T02:42:57.037Z,11.80
2022-11-17T02:44:08.551Z,11.80
2022-11-17T02:45:13.367Z,11.80
2022-11-17T02:46:19.324Z,11.80
2022-11-17T02:47:26.918Z,11.80
2022-11-17T02:48:32.971Z,11.70
2022-11-17T02:49:38.731Z,11.70
2022-11-17T02:50:44.505Z,11.70
2022-11-17T02:51:51.082Z,11.70
2022-11-17T02:53:13.111Z,11.70
2022-11-17T02:54:17.575Z,11.70
2022-11-17T02:55:19.738Z,11.70
2022-11-17T02:56:22.936Z,11.70
2022-11-17T02:57:28.639Z,11.70
2022-11-17T02:58:31.798Z,11.60
2022-11-17T02:59:37.941Z,11.60
2022-11-17T03:00:50.543Z,11.60
2022-11-17T03:02:24.850Z,11.60
2022-11-17T03:03:40.412Z,11.60
2022-11-17T03:04:52.946Z,11.60
2022-11-17T03:06:04.871Z,11.50
2022-11-17T03:07:24.481Z,11.60
2022-11-17T03:08:36.718Z,11.60
2022-11-17T03:09:47.675Z,11.60
2022-11-17T03:10:58.043Z,11.60
2022-11-17T03:12:05.739Z,11.60
2022-11-17T03:13:16.285Z,11.60
2022-11-17T03:14:25.558Z,11.60
2022-11-17T03:15:39.958Z,11.70
2022-11-17T03:16:50.817Z,11.70
2022-11-17T03:18:02.180Z,11.70
2022-11-17T03:19:10.953Z,11.70
2022-11-17T03:20:17.346Z,11.70
2022-11-17T03:21:23.054Z,11.80
2022-11-17T03:22:33.597Z,11.80
2022-11-17T03:23:41.895Z,11.80
2022-11-17T03:24:50.658Z,11.80
2022-11-17T03:25:57.883Z,11.80
2022-11-17T03:27:06.919Z,11.80
2022-11-17T03:28:11.567Z,11.80
2022-11-17T03:29:17.906Z,11.80
2022-11-17T03:30:22.284Z,11.80
2022-11-17T03:31:28.919Z,11.80
2022-11-17T03:32:36.158Z,11.80
2022-11-17T03:33:41.480Z,11.80
2022-11-17T03:34:48.473Z,11.80
2022-11-17T03:35:55.944Z,11.90
2022-11-17T03:37:02.358Z,11.90
2022-11-17T03:38:10.775Z,11.90
2022-11-17T03:39:19.281Z,12.00
2022-11-17T03:40:26.423Z,12.00
2022-11-17T03:41:31.947Z,12.10
2022-11-17T03:42:39.556Z,12.10
2022-11-17T03:43:43.886Z,12.10
2022-11-17T03:44:51.843Z,12.10
2022-11-17T03:45:57.117Z,12.20
2022-11-17T03:47:06.061Z,12.20
2022-11-17T03:48:14.257Z,12.20
2022-11-17T03:49:25.852Z,12.30
2022-11-17T03:50:32.043Z,12.40
2022-11-17T03:51:35.149Z,12.40
2022-11-17T03:52:38.075Z,12.40
2022-11-17T03:53:41.677Z,12.40
2022-11-17T03:54:44.018Z,12.40
2022-11-17T03:55:56.158Z,12.40
2022-11-17T03:57:02.839Z,12.50
2022-11-17T03:58:10.259Z,12.40
2022-11-17T03:59:17.667Z,12.40
2022-11-17T04:00:21.601Z,12.40
2022-11-17T04:01:26.891Z,12.30
2022-11-17T04:02:31.468Z,12.30
2022-11-17T04:03:35.192Z,12.20
2022-11-17T04:04:52.398Z,12.20
2022-11-17T04:05:56.065Z,12.20
2022-11-17T04:06:58.311Z,12.20
2022-11-17T04:08:02.253Z,12.10
2022-11-17T04:09:04.754Z,12.20
2022-11-17T04:10:10.449Z,12.30
2022-11-17T04:11:30.845Z,12.30
2022-11-17T04:12:52.308Z,12.40
2022-11-17T04:14:13.248Z,12.50
2022-11-17T04:15:34.743Z,12.60
2022-11-17T04:16:37.784Z,12.50
2022-11-17T04:17:41.256Z,12.50
2022-11-17T04:18:44.262Z,12.50
2022-11-17T04:19:46.368Z,12.50
2022-11-17T04:20:51.805Z,12.60
2022-11-17T04:21:56.176Z,12.50
2022-11-17T04:23:07.076Z,12.50
2022-11-17T04:24:10.435Z,12.50
2022-11-17T04:25:32.627Z,12.50
2022-11-17T04:26:53.267Z,12.40
2022-11-17T04:28:13.597Z,12.40
2022-11-17T04:29:17.581Z,12.30
2022-11-17T04:30:19.639Z,12.20
2022-11-17T04:31:24.842Z,12.20
2022-11-17T04:32:26.955Z,12.10
2022-11-17T04:33:31.811Z,12.10
2022-11-17T04:34:34.986Z,12.20
2022-11-17T04:35:37.018Z,12.20
2022-11-17T04:36:44.299Z,12.20
2022-11-17T04:37:46.351Z,12.30
2022-11-17T04:38:51.287Z,12.30
2022-11-17T04:39:53.412Z,12.30
2022-11-17T04:41:17.157Z,12.30
2022-11-17T04:42:20.221Z,12.30
2022-11-17T04:43:22.233Z,12.30
2022-11-17T04:44:27.386Z,12.30
2022-11-17T04:45:29.485Z,12.30
2022-11-17T04:46:34.404Z,12.30
2022-11-17T04:47:37.507Z,12.40
2022-11-17T04:48:40.885Z,12.40
2022-11-17T04:49:43.891Z,12.30
2022-11-17T04:50:45.968Z,12.30
2022-11-17T04:51:49.548Z,12.30
2022-11-17T04:52:51.628Z,12.30
2022-11-17T04:53:54.956Z,12.30
2022-11-17T04:54:56.957Z,12.40
2022-11-17T04:56:01.277Z,12.40
2022-11-17T04:57:04.475Z,12.40
2022-11-17T04:58:06.532Z,12.40
2022-11-17T04:59:10.030Z,12.40
2022-11-17T05:00:13.535Z,12.40
2022-11-17T05:01:18.660Z,12.40
2022-11-17T05:02:20.753Z,12.40
2022-11-17T05:03:24.116Z,12.40
2022-11-17T05:04:45.895Z,12.40
2022-11-17T05:05:49.627Z,12.40
2022-11-17T05:06:52.677Z,12.40
2022-11-17T05:07:54.877Z,12.40
2022-11-17T05:08:57.961Z,12.40
2022-11-17T05:10:00.042Z,12.40
2022-11-17T05:11:20.379Z,12.40
2022-11-17T05:12:40.616Z,12.40
2022-11-17T05:13:42.704Z,12.40
2022-11-17T05:14:47.256Z,12.40
2022-11-17T05:16:07.872Z,12.40
2022-11-17T05:17:11.633Z,12.40
2022-11-17T05:18:14.092Z,12.40
2022-11-17T05:19:19.589Z,12.40
2022-11-17T05:20:23.015Z,12.40
2022-11-17T05:21:26.178Z,12.40
2022-11-17T05:22:46.721Z,12.40
2022-11-17T05:23:54.392Z,12.40
2022-11-17T05:24:57.014Z,12.50
2022-11-17T05:26:00.037Z,12.50
2022-11-17T05:27:02.169Z,12.50
2022-11-17T05:28:05.372Z,12.50
2022-11-17T05:29:08.963Z,12.50
2022-11-17T05:30:13.212Z,12.50
2022-11-17T05:31:15.871Z,12.60
2022-11-17T05:32:18.943Z,12.60
2022-11-17T05:33:20.999Z,12.60
2022-11-17T05:34:24.064Z,12.60
2022-11-17T05:35:27.576Z,12.60
2022-11-17T05:36:30.770Z,12.60
2022-11-17T05:37:32.804Z,12.60
2022-11-17T05:38:36.249Z,12.60
2022-11-17T05:39:38.303Z,12.60
2022-11-17T05:40:41.653Z,12.60
2022-11-17T05:41:43.741Z,12.60
2022-11-17T05:42:46.778Z,12.60
2022-11-17T05:43:50.822Z,12.60
2022-11-17T05:44:52.853Z,12.60
2022-11-17T05:45:55.957Z,12.60
2022-11-17T05:46:58.065Z,12.60
2022-11-17T05:48:01.152Z,12.60
2022-11-17T05:49:03.267Z,12.50
2022-11-17T05:50:07.022Z,12.60
2022-11-17T05:51:11.418Z,12.60
2022-11-17T05:52:14.545Z,12.60
2022-11-17T05:53:16.554Z,12.60
2022-11-17T05:54:19.583Z,12.60
2022-11-17T05:55:21.645Z,12.60
2022-11-17T05:56:33.125Z,12.60
2022-11-17T05:57:35.430Z,12.70
2022-11-17T05:58:42.151Z,12.60
2022-11-17T05:59:48.253Z,12.70
2022-11-17T06:00:53.423Z,12.70
2022-11-17T06:02:01.685Z,12.70
2022-11-17T06:03:08.021Z,12.80
2022-11-17T06:04:12.099Z,12.80
2022-11-17T06:05:19.759Z,12.90
2022-11-17T06:06:24.938Z,12.90
2022-11-17T06:07:28.040Z,12.90
2022-11-17T06:08:31.025Z,12.90
2022-11-17T06:09:36.321Z,13.00
2022-11-17T06:10:38.403Z,12.90
2022-11-17T06:11:41.538Z,12.90
2022-11-17T06:12:43.728Z,12.90
2022-11-17T06:13:46.760Z,12.90
2022-11-17T06:14:48.819Z,13.00
2022-11-17T06:15:51.895Z,13.00
2022-11-17T06:17:00.794Z,13.00
2022-11-17T06:18:05.908Z,13.00
2022-11-17T06:19:14.229Z,13.10
2022-11-17T06:20:21.544Z,13.00
2022-11-17T06:21:25.928Z,13.00
2022-11-17T06:22:28.980Z,12.90
2022-11-17T06:23:34.750Z,12.80
2022-11-17T06:24:38.279Z,12.70
2022-11-17T06:25:41.495Z,12.60
2022-11-17T06:26:45.132Z,12.60
2022-11-17T06:27:49.591Z,12.50
2022-11-17T06:28:52.419Z,12.40
2022-11-17T06:29:57.245Z,12.30
2022-11-17T06:31:00.021Z,12.30
2022-11-17T06:32:03.091Z,12.20
2022-11-17T06:33:09.256Z,12.20
2022-11-17T06:34:13.435Z,12.20
2022-11-17T06:35:16.685Z,12.20
2022-11-17T06:36:19.813Z,12.10
2022-11-17T06:37:23.544Z,12.10
2022-11-17T06:38:26.556Z,12.00
2022-11-17T06:39:28.608Z,12.00
2022-11-17T06:40:31.618Z,12.00
2022-11-17T06:41:33.748Z,11.90
2022-11-17T06:42:55.763Z,11.80
2022-11-17T06:43:58.823Z,11.80
2022-11-17T06:45:00.848Z,11.80
2022-11-17T06:46:05.852Z,11.70
2022-11-17T06:47:07.951Z,11.70
2022-11-17T06:48:13.175Z,11.60
2022-11-17T06:49:15.459Z,11.60
2022-11-17T06:50:18.684Z,11.60
2022-11-17T06:51:21.950Z,11.60
2022-11-17T06:52:25.346Z,11.60
2022-11-17T06:53:28.599Z,11.50
2022-11-17T06:54:31.597Z,11.50
2022-11-17T06:55:34.553Z,11.50
2022-11-17T06:56:37.608Z,11.50
2022-11-17T06:57:39.672Z,11.50
2022-11-17T06:58:42.746Z,11.50
2022-11-17T06:59:44.879Z,11.50
2022-11-17T07:00:47.943Z,11.50
2022-11-17T07:01:50.970Z,11.40
2022-11-17T07:02:52.976Z,11.40
2022-11-17T07:03:55.981Z,11.40
2022-11-17T07:04:58.028Z,11.40
2022-11-17T07:06:02.627Z,11.40
2022-11-17T07:07:04.926Z,11.40
2022-11-17T07:08:10.648Z,11.30
2022-11-17T07:09:13.661Z,11.30
2022-11-17T07:10:15.980Z,11.30
2022-11-17T07:11:19.425Z,11.30
2022-11-17T07:12:21.521Z,11.30
2022-11-17T07:13:25.560Z,11.20
2022-11-17T07:14:27.814Z,11.20
2022-11-17T07:15:30.942Z,11.20
2022-11-17T07:16:34.024Z,11.10
2022-11-17T07:17:36.045Z,11.10
2022-11-17T07:18:41.439Z,11.10
2022-11-17T07:19:43.467Z,11.10
2022-11-17T07:20:46.779Z,11.10
2022-11-17T07:21:48.847Z,11.00
2022-11-17T07:22:51.873Z,11.00
2022-11-17T07:23:55.340Z,11.00
2022-11-17T07:24:58.381Z,10.90
2022-11-17T07:26:01.505Z,10.90
2022-11-17T07:27:04.775Z,10.90
2022-11-17T07:28:08.315Z,10.90
2022-11-17T07:29:10.379Z,10.90
2022-11-17T07:30:14.722Z,10.80
2022-11-17T07:31:16.959Z,10.80
2022-11-17T07:32:20.102Z,10.80
2022-11-17T07:33:22.857Z,10.80
2022-11-17T07:34:25.880Z,10.70
2022-11-17T07:35:28.509Z,10.70
2022-11-17T07:36:31.518Z,10.70
2022-11-17T07:37:34.258Z,10.60
2022-11-17T07:38:38.734Z,10.60
2022-11-17T07:39:42.537Z,10.60
2022-11-17T07:40:45.660Z,10.50
2022-11-17T07:41:47.721Z,10.50
2022-11-17T07:42:50.784Z,10.50
2022-11-17T07:43:53.792Z,10.50
2022-11-17T07:44:55.902Z,10.50
2022-11-17T07:45:59.069Z,10.50
2022-11-17T07:47:01.203Z,10.50
2022-11-17T07:48:06.858Z,10.40
2022-11-17T07:49:08.884Z,10.50
2022-11-17T07:50:11.970Z,10.40
2022-11-17T07:51:14.281Z,10.40
2022-11-17T07:52:17.380Z,10.40
2022-11-17T07:53:19.470Z,10.40
2022-11-17T07:54:22.508Z,10.40
2022-11-17T07:55:27.502Z,10.40
2022-11-17T07:56:30.560Z,10.40
2022-11-17T07:57:33.890Z,10.40
2022-11-17T07:58:38.263Z,10.40
2022-11-17T07:59:40.732Z,10.40
2022-11-17T08:00:43.978Z,10.30
2022-11-17T08:01:46.074Z,10.30
2022-11-17T08:02:49.221Z,10.30
2022-11-17T08:03:51.316Z,10.30
2022-11-17T08:04:54.380Z,10.20
2022-11-17T08:05:57.702Z,10.20
2022-11-17T08:06:59.822Z,10.20
2022-11-17T08:08:02.996Z,10.20
2022-11-17T08:09:06.261Z,10.20
2022-11-17T08:10:10.033Z,10.20
2022-11-17T08:11:14.412Z,10.20
2022-11-17T08:12:17.447Z,10.20
2022-11-17T08:13:20.502Z,10.20
2022-11-17T08:14:23.870Z,10.20
2022-11-17T08:15:25.973Z,10.10
2022-11-17T08:16:30.724Z,10.10
2022-11-17T08:17:32.797Z,10.10
2022-11-17T08:18:36.626Z,10.10
2022-11-17T08:19:39.018Z,10.10
2022-11-17T08:20:42.034Z,10.10
2022-11-17T08:21:45.042Z,10.10
2022-11-17T08:22:47.161Z,10.10
2022-11-17T08:23:52.281Z,10.10
2022-11-17T08:24:55.300Z,10.10
2022-11-17T08:25:57.991Z,10.10
2022-11-17T08:27:03.170Z,10.10
2022-11-17T08:28:06.347Z,10.10
2022-11-17T08:29:08.566Z,10.10
2022-11-17T08:30:12.074Z,10.10
2022-11-17T08:31:14.401Z,10.10
2022-11-17T08:32:17.418Z,10.10
2022-11-17T08:33:20.465Z,10.10
2022-11-17T08:34:22.512Z,10.10
2022-11-17T08:35:26.388Z,10.10
2022-11-17T08:36:29.516Z,10.10
2022-11-17T08:37:31.754Z,10.10
2022-11-17T08:38:35.493Z,10.00
2022-11-17T08:39:38.787Z,10.00
2022-11-17T08:40:42.128Z,10.00
2022-11-17T08:41:45.164Z,10.00
2022-11-17T08:43:00.444Z,10.00
2022-11-17T08:44:04.566Z,10.00
2022-11-17T08:45:07.901Z,10.00
2022-11-17T08:46:13.059Z,10.00
2022-11-17T08:47:15.136Z,10.00
2022-11-17T08:48:18.159Z,10.00
2022-11-17T08:49:21.182Z,10.00
2022-11-17T08:50:24.590Z,10.10
2022-11-17T08:51:28.905Z,10.10
2022-11-17T08:52:31.377Z,10.10
2022-11-17T08:53:34.444Z,10.20
2022-11-17T08:54:36.729Z,10.30
2022-11-17T08:55:41.498Z,10.30
2022-11-17T08:56:46.353Z,10.30
2022-11-17T08:57:49.802Z,10.30
2022-11-17T08:58:52.850Z,10.40
2022-11-17T08:59:54.877Z,10.40
2022-11-17T09:01:03.829Z,10.40
2022-11-17T09:02:08.320Z,10.50
2022-11-17T09:03:12.048Z,10.50
2022-11-17T09:04:15.222Z,10.60
2022-11-17T09:05:17.414Z,10.60
2022-11-17T09:06:21.000Z,10.70
2022-11-17T09:07:24.157Z,10.70
2022-11-17T09:09:49.508Z,10.70
2022-11-17T09:10:51.608Z,10.80
2022-11-17T09:11:54.631Z,10.90
2022-11-17T09:12:59.350Z,11.10
2022-11-17T09:14:02.546Z,11.10
2022-11-17T09:15:05.826Z,11.20
2022-11-17T09:16:11.675Z,11.20
2022-11-17T09:17:14.758Z,11.30
2022-11-17T09:18:17.103Z,11.30
2022-11-17T09:19:20.501Z,11.40
2022-11-17T09:20:22.647Z,11.50
2022-11-17T09:21:27.124Z,11.60
2022-11-17T09:22:30.177Z,11.70
2022-11-17T09:23:32.322Z,11.80
2022-11-17T09:24:35.563Z,11.80
2022-11-17T09:25:37.687Z,12.00
2022-11-17T09:26:40.997Z,12.00
2022-11-17T09:27:43.235Z,12.00
2022-11-17T09:28:47.633Z,12.10
2022-11-17T09:29:51.289Z,12.00
2022-11-17T09:30:54.766Z,12.10
2022-11-17T09:31:57.984Z,12.20
2022-11-17T09:33:00.073Z,12.20
2022-11-17T09:34:05.545Z,12.20
2022-11-17T09:35:09.629Z,12.30
2022-11-17T09:36:14.066Z,12.30
2022-11-17T09:37:16.086Z,12.30
2022-11-17T09:38:19.109Z,12.30
2022-11-17T09:39:22.434Z,12.30
2022-11-17T09:40:25.722Z,12.30
2022-11-17T09:41:35.111Z,12.30
2022-11-17T09:42:39.639Z,12.30
2022-11-17T09:43:49.283Z,12.30
2022-11-17T09:44:59.098Z,12.30
2022-11-17T09:46:12.722Z,12.30
2022-11-17T09:47:26.165Z,12.30
2022-11-17T09:48:41.412Z,12.40
2022-11-17T09:49:58.102Z,12.40
2022-11-17T09:51:05.211Z,12.50
2022-11-17T09:52:16.839Z,12.40
2022-11-17T09:53:24.880Z,12.50
2022-11-17T09:54:38.153Z,12.50
2022-11-17T09:55:42.843Z,12.60
2022-11-17T09:56:48.210Z,12.60
2022-11-17T09:57:54.838Z,12.70
2022-11-17T09:59:04.228Z,12.70
2022-11-17T10:00:15.649Z,12.80
2022-11-17T10:01:21.414Z,12.90
2022-11-17T10:02:24.604Z,12.90
2022-11-17T10:03:31.974Z,12.90
2022-11-17T10:04:35.365Z,13.00
2022-11-17T10:05:38.913Z,13.00
2022-11-17T10:06:45.822Z,13.10
2022-11-17T10:07:51.062Z,13.10
2022-11-17T10:09:00.301Z,13.10
2022-11-17T10:10:06.841Z,13.20
2022-11-17T10:11:26.991Z,13.30
2022-11-17T10:12:35.770Z,13.40
2022-11-17T10:13:38.348Z,13.40
2022-11-17T10:14:43.205Z,13.40
2022-11-17T10:15:49.778Z,13.50
2022-11-17T10:16:54.414Z,13.60
2022-11-17T10:17:57.864Z,13.60
2022-11-17T10:19:03.177Z,13.60
2022-11-17T10:20:16.561Z,13.70
2022-11-17T10:21:19.627Z,13.70
2022-11-17T10:22:34.527Z,13.70
2022-11-17T10:23:45.779Z,13.70
2022-11-17T10:24:52.041Z,13.70
2022-11-17T10:25:59.045Z,13.60
2022-11-17T10:27:02.173Z,13.60
2022-11-17T10:28:06.776Z,13.60
2022-11-17T10:29:12.750Z,13.60
2022-11-17T10:30:24.800Z,13.60
2022-11-17T10:31:29.788Z,13.60
2022-11-17T10:32:34.560Z,13.60
2022-11-17T10:33:40.887Z,13.60
2022-11-17T10:34:42.963Z,13.60
2022-11-17T10:35:55.930Z,13.60
2022-11-17T10:37:04.642Z,13.60
2022-11-17T10:38:19.050Z,13.70
2022-11-17T10:39:41.507Z,13.70
2022-11-17T10:40:49.270Z,13.80
2022-11-17T10:41:51.376Z,13.80
2022-11-17T10:43:01.180Z,13.90
2022-11-17T10:44:07.484Z,13.90
2022-11-17T10:45:18.045Z,13.80
2022-11-17T10:46:23.970Z,13.80
2022-11-17T10:47:29.137Z,13.70
2022-11-17T10:48:33.926Z,13.70
2022-11-17T10:49:38.504Z,13.70
2022-11-17T10:50:53.111Z,13.70
2022-11-17T10:52:06.905Z,13.60
2022-11-17T10:53:24.473Z,13.60
2022-11-17T10:54:27.521Z,13.60
2022-11-17T10:55:33.934Z,13.60
2022-11-17T10:56:42.958Z,13.70
2022-11-17T10:57:49.243Z,13.70
2022-11-17T10:58:59.282Z,13.70
2022-11-17T11:00:01.666Z,13.70
2022-11-17T11:01:06.027Z,13.70
2022-11-17T11:02:28.720Z,13.70
2022-11-17T11:03:33.073Z,13.70
2022-11-17T11:04:39.442Z,13.80
2022-11-17T11:06:00.555Z,13.90
2022-11-17T11:07:12.543Z,14.00
2022-11-17T11:08:18.239Z,14.00
2022-11-17T11:09:24.105Z,14.10
2022-11-17T11:10:31.383Z,14.10
2022-11-17T11:11:43.903Z,14.20
2022-11-17T11:12:50.250Z,14.20
2022-11-17T11:13:57.705Z,14.20
2022-11-17T11:15:00.477Z,14.30
2022-11-17T11:16:03.655Z,14.30
2022-11-17T11:17:12.988Z,14.20
2022-11-17T11:18:18.033Z,14.20
2022-11-17T11:19:21.593Z,14.20
2022-11-17T11:20:34.076Z,14.20
2022-11-17T11:21:51.551Z,14.20
2022-11-17T11:22:59.882Z,14.10
2022-11-17T11:24:12.528Z,14.10
2022-11-17T11:25:29.512Z,14.10
2022-11-17T11:26:45.426Z,14.10
2022-11-17T11:28:05.108Z,14.00
2022-11-17T11:29:21.487Z,14.00
2022-11-17T11:30:24.868Z,14.00
2022-11-17T11:31:40.948Z,14.00
2022-11-17T11:32:56.267Z,14.00
2022-11-17T11:34:15.185Z,14.00
2022-11-17T11:36:06.986Z,13.90
2022-11-17T11:37:12.030Z,13.90
2022-11-17T11:38:30.976Z,13.80
2022-11-17T11:39:43.797Z,13.80
2022-11-17T11:40:56.080Z,13.70
2022-11-17T11:42:24.336Z,13.60
2022-11-17T11:43:37.068Z,13.60
2022-11-17T11:44:54.898Z,13.60
2022-11-17T11:46:05.050Z,13.50
2022-11-17T11:47:20.414Z,13.50
2022-11-17T11:48:27.684Z,13.50
2022-11-17T11:49:38.551Z,13.50
2022-11-17T11:50:50.192Z,13.50
2022-11-17T11:51:54.979Z,13.50
2022-11-17T11:53:02.876Z,13.60
2022-11-17T11:54:13.996Z,13.60
2022-11-17T11:55:22.087Z,13.60
2022-11-17T11:56:32.622Z,13.60
2022-11-17T11:57:38.375Z,13.70
2022-11-17T11:58:46.541Z,13.70
2022-11-17T11:59:55.538Z,13.70
2022-11-17T12:01:05.858Z,13.70
2022-11-17T12:02:24.537Z,13.70
2022-11-17T12:03:34.813Z,13.80
2022-11-17T12:04:44.141Z,13.80
2022-11-17T12:06:21.658Z,13.90
2022-11-17T12:07:35.165Z,14.00
2022-11-17T12:08:42.923Z,14.00
2022-11-17T12:09:53.442Z,14.00
2022-11-17T12:11:01.594Z,14.00
2022-11-17T12:12:09.673Z,14.00
2022-11-17T12:13:16.167Z,14.00
2022-11-17T12:14:19.172Z,14.00
2022-11-17T12:15:38.734Z,14.00
2022-11-17T12:16:43.249Z,13.90
2022-11-17T12:18:00.281Z,13.90
2022-11-17T12:19:03.675Z,14.00
2022-11-17T12:20:48.151Z,13.90
2022-11-17T12:21:54.972Z,13.90
2022-11-17T12:23:10.092Z,13.90
2022-11-17T12:24:19.280Z,13.90
2022-11-17T12:25:27.001Z,13.90
2022-11-17T12:26:31.972Z,13.90
2022-11-17T12:27:45.496Z,13.80
2022-11-17T12:28:48.587Z,13.80
2022-11-17T12:29:51.605Z,13.80
2022-11-17T12:30:55.932Z,13.80
2022-11-17T12:32:01.175Z,13.80
2022-11-17T12:33:04.735Z,13.80
2022-11-17T12:34:30.941Z,13.90
2022-11-17T12:35:35.955Z,13.90
2022-11-17T12:36:39.139Z,14.00
2022-11-17T12:37:42.157Z,14.00
2022-11-17T12:38:44.274Z,14.00
2022-11-17T12:40:01.957Z,14.00
2022-11-17T12:41:04.030Z,14.10
2022-11-17T12:42:08.103Z,14.10
2022-11-17T12:43:22.119Z,14.10
2022-11-17T12:44:44.506Z,14.10
2022-11-17T12:46:14.810Z,14.20
2022-11-17T12:47:19.480Z,14.20
2022-11-17T12:48:34.089Z,14.20
2022-11-17T12:49:46.528Z,14.20
2022-11-17T12:51:05.100Z,14.30
2022-11-17T12:52:15.680Z,14.40
2022-11-17T12:53:32.422Z,14.50
2022-11-17T12:54:46.095Z,14.60
2022-11-17T12:56:13.039Z,14.70
2022-11-17T12:57:24.069Z,14.80
2022-11-17T12:58:33.831Z,14.80
2022-11-17T13:00:05.267Z,14.80
2022-11-17T13:01:13.806Z,14.90
2022-11-17T13:02:37.311Z,14.80
2022-11-17T13:03:47.790Z,14.90
2022-11-17T13:04:55.079Z,14.90
2022-11-17T13:06:34.423Z,14.90
2022-11-17T13:07:33.409Z,15.00
2022-11-17T13:08:35.504Z,15.10
2022-11-17T13:09:38.504Z,15.10
2022-11-17T13:10:41.574Z,15.10
2022-11-17T13:11:59.655Z,15.00
2022-11-17T13:13:12.302Z,14.90
2022-11-17T13:14:17.662Z,14.90
2022-11-17T13:15:23.129Z,14.90
2022-11-17T13:16:26.197Z,14.90
2022-11-17T13:17:30.597Z,15.00
2022-11-17T13:18:37.117Z,15.10
2022-11-17T13:19:42.280Z,15.20
2022-11-17T13:20:47.524Z,15.30
2022-11-17T13:21:59.724Z,15.40
2022-11-17T13:23:04.498Z,15.50
2022-11-17T13:24:09.741Z,15.40
2022-11-17T13:25:23.484Z,15.40
2022-11-17T13:26:28.086Z,15.40
2022-11-17T13:27:32.508Z,15.40
2022-11-17T13:28:34.548Z,15.30
2022-11-17T13:29:37.850Z,15.30
2022-11-17T13:30:39.982Z,15.30
2022-11-17T13:31:43.037Z,15.30
2022-11-17T13:32:45.482Z,15.20
2022-11-17T13:34:00.524Z,15.20
2022-11-17T13:35:03.615Z,15.20
2022-11-17T13:36:16.789Z,15.20
2022-11-17T13:37:23.319Z,15.30
2022-11-17T13:38:25.370Z,15.30
2022-11-17T13:39:29.249Z,15.30
2022-11-17T13:40:33.580Z,15.30
2022-11-17T13:41:40.125Z,15.30
2022-11-17T13:42:44.642Z,15.40
2022-11-17T13:43:48.679Z,15.50
2022-11-17T13:44:51.901Z,15.50
2022-11-17T13:45:56.064Z,15.60
2022-11-17T13:47:20.743Z,15.60
2022-11-17T13:48:34.788Z,15.60
2022-11-17T13:49:39.256Z,15.70
2022-11-17T13:50:42.530Z,15.70
2022-11-17T13:51:46.509Z,15.70
2022-11-17T13:52:54.475Z,15.70
2022-11-17T13:54:02.557Z,15.60
2022-11-17T13:55:09.062Z,15.50
2022-11-17T13:56:25.719Z,15.60
2022-11-17T13:57:30.160Z,15.60
2022-11-17T13:58:39.952Z,15.70
2022-11-17T13:59:45.541Z,15.70
2022-11-17T14:00:52.026Z,15.80
2022-11-17T14:02:21.542Z,15.90
2022-11-17T14:03:33.457Z,15.90
2022-11-17T14:04:36.507Z,15.80
2022-11-17T14:05:55.206Z,15.80
2022-11-17T14:07:00.004Z,15.80
2022-11-17T14:08:21.572Z,15.80
2022-11-17T14:09:25.417Z,15.70
2022-11-17T14:10:31.558Z,15.70
2022-11-17T14:11:34.619Z,15.80
2022-11-17T14:12:36.943Z,15.70
2022-11-17T14:13:41.494Z,15.60
2022-11-17T14:14:46.119Z,15.60
2022-11-17T14:15:53.745Z,15.60
2022-11-17T14:16:57.606Z,15.60
2022-11-17T14:18:02.760Z,15.60
2022-11-17T14:19:24.900Z,15.60
2022-11-17T14:20:33.295Z,15.50
2022-11-17T14:21:36.559Z,15.40
2022-11-17T14:22:38.589Z,15.30